Hlavní strana
METAR-TAF:

METAR-TAF

Letiště :

Brønnøysund, Norsko

zeměpisná šířka: 65-28N, zeměpisná délka: 012-13E, výška: 0 m

Aktuální stav počasí

Zpráva byla vytvořena před 20 minutami, v 11:20 UTC
Jihovýchodní vítr 12 kt s nárazy do 25 kt, proměnlivý mezi východním a jihojihozápadním
Teplota 17°C
Vlhkost vzduchu 48%
Tlak 1003 hPa
Viditelnost 10 km a více
Skoro jasno ve výšce 4000 ft
Oblačno až skoro zataženo ve výšce 9000 ft

METAR: ENBN 041120Z 13012G25KT 090V210 9999 FEW040 BKN090 17/06 Q1003

Čas: 13:40 (11:40 UTC)

Předpověď počasí

Zpráva byla vytvořena před 3 hodinami a 40 minutami, v 08:00 UTC
Předpověď platná od 04 v 09 UTC do 04 v 18 UTC
vítr z různých směrů 5 kt
Viditelnost 10 km a více
Skoro jasno ve výšce 2000 ft
Oblačno až skoro zataženo ve výšce 3500 ft
Dočasný
od 04 v 09 UTC do 04 v 18 UTC
Východojihovýchodní vítr 12 kt

TAF: ENBN 040800Z 0409/0418 VRB05KT 9999 FEW020 BKN035 TEMPO 0409/0418 11012KT

Stav a předpovědi počasí z více než 4 000 letišť (zprávy METAR a TAF).

Červené a žluté tečky na mapě představují dostupné meteorologické stanice.

Když kurzor umístíte na tečku, zobrazí se název stanice.

Pak kliknutím zobrazíte stav a předpověď počasí.

Chcete-li změnit mapu, kliknutím na zelené tlačítko se znaménkem +mapu přiblížíte, kliknutím na zelené tlačítko se znaménkem – mapu oddálíte a kliknutím na zelené šipky přejdete na sousední mapy.


METAR-TAF: